Hit Tracker is now ESPN Home Run Tracker! Hit Tracker founder Greg Rybarczyk is now collaborating with the ESPN Stats & Information Group to continue tracking all MLB home runs, and helping baseball fans know "How Far It Really Went!™" Please credit any information on this site to ESPN Stats & Information Group. For more information and analysis on home runs, please contact founder Greg Rybarczyk. E-Mail ESPN Home Run Tracker
Main Page | Ballparks | Park Overlays | Glossary | Highlight Homers | Feedback | Bio | 3 Types of HR's | AAA Home Run Derby Last Updated: November 1, 2017, 9:41 pm PST
If you want to know "How Far It Really Went!", then you've come to the right place! Welcome to the ESPN Home Run Tracker, where you can find accurate, transparently verifiable distances for every home run hit in MLB games. Please also check out the ESPN MLB Scoreboard throughout the 2017 season! Contact us at grybar@hittrackeronline.com.
Season:
Hitter detail for Judge, Aaron
Hitter Team # of Home Runs Avg.
True
Distance
Avg.
Speed
Off
Bat
Avg.
Std.
Dist.
Judge, Aaron NYY 52 415.5 107.3 413.4

Judge, Aaron has the longest home runs in 2017 Season in these park(s): Yankee Stadium, Citi Field

Scatter Plot of Home Runs for Judge, Aaron
 Overlay Ballpark:

2017 Season Home Runs for Judge, Aaron
Click headers to sort
Date Video Path Hitter Hitter
Team
Pitcher Pitcher
Team
INN Ballpark Type/
Luck
True
Dist.
Speed
Off
Bat
Elev.
Angle
Horiz.
Angle
Apex Impact Due To: Std.
Dist.
#
Parks
Wind Temp. Alt. ^
04/12/17 Video View Judge, Aaron NYY Ramirez, Erasmo TB 7 Yankee Stadi... PL 435 105.9 26.8 87.4 101 -1 0 0 436 30
04/10/17 Video View Judge, Aaron NYY Cobb, Alex TB 4 Yankee Stadi... PL 391 105.4 36.7 106.5 150 1 0 0 389 30
04/09/17 Video View Judge, Aaron NYY Givens, Mychal BAL 8 Oriole Park ... JE 372 97.0 29.6 106.4 86 1 0 0 371 15
04/17/17 Video View Judge, Aaron NYY Holland, Derek CHW 5 Yankee Stadi... PL 405 101.7 29.6 102.4 100 3 -1 0 403 30
04/19/17 Video View Judge, Aaron NYY Covey, Dylan CHW 5 Yankee Stadi... ND 451 113.9 29.1 106.5 122 -1 -5 0 458 30
04/26/17 Video View Judge, Aaron NYY Porcello, Rick BOS 2 Fenway Park PL 391 100.5 29.3 73.1 90 4 -2 0 389 30
04/28/17 Video View Judge, Aaron NYY Gausman, Kevin BAL 5 Yankee Stadi... JE 410 112.2 19.6 100.3 56 0 0 0 410 25
04/28/17 Video View Judge, Aaron NYY Gausman, Kevin BAL 6 Yankee Stadi... JE 425 112.3 18.3 92.6 57 1 0 0 425 23
04/29/17 Video View Judge, Aaron NYY Aquino, Jayson BAL 7 Yankee Stadi... ND 435 105.4 30.7 83.9 120 3 3 0 429 30
05/02/17 Video View Judge, Aaron NYY Latos, Mat TOR 3 Yankee Stadi... JE 332 91.6 33.2 58.2 81 4 0 0 329 2
05/02/17 Video View Judge, Aaron NYY Grilli, Jason TOR 7 Yankee Stadi... PL 391 104.9 35.0 110.1 141 -3 -1 0 394 30
05/03/17 Video View Judge, Aaron NYY Stroman, Marcus TOR 3 Yankee Stadi... PL 426 103.0 30.1 93.0 116 7 -2 0 420 28
05/14/17 Video View Judge, Aaron NYY Fiers, Mike HOU 4 Yankee Stadi... ND 457 108.4 25.3 90.6 97 9 0 0 448 30
05/20/17 Video View Judge, Aaron NYY Andriese, Matt TB 2 Tropicana Fi... PL 384 102.9 25.4 70.4 70 0 0 0 384 27
05/28/17 Video View Judge, Aaron NYY Triggs, Andrew OAK 3 Yankee Stadi... PL 377 104.8 22.7 71.3 60 1 0 0 377 11
05/29/17 Video View Judge, Aaron NYY Bundy, Dylan BAL 7 Oriole Park ... PL 429 111.2 19.9 84.4 64 3 0 0 426 24
06/10/17 Video View Judge, Aaron NYY Tillman, Chris BAL 1 Yankee Stadi... ND 397 116.0 21.6 131.4 53 3 2 0 392 30
06/11/17 Video View Judge, Aaron NYY Verrett, Logan BAL 6 Yankee Stadi... ND 496 119.6 26.4 102.8 117 -3 5 0 493 30
06/11/17 Video View Judge, Aaron NYY Yacabonis, Jimmy BAL 7 Yankee Stadi... PL 401 112.4 19.4 77.3 52 1 1 0 399 19
06/12/17 Video View Judge, Aaron NYY Norris, Bud LAA 8 Angel Stadiu... ND 438 107.7 26.8 80.9 100 0 -1 0 438 30
06/16/17 Video View Judge, Aaron NYY Manaea, Sean OAK 3 Oakland-Alam... PL 374 99.8 30.6 63.8 88 0 1 0 374 29
06/20/17 Video View Judge, Aaron NYY Bridwell, Parker LAA 5 Yankee Stadi... PL 388 99.9 34.7 79.4 128 0 3 0 386 16
06/22/17 Video View Judge, Aaron NYY Chavez, Jesse LAA 2 Yankee Stadi... JE 422 102.8 29.5 89.6 110 -1 2 0 420 28
06/24/17 Video View Judge, Aaron NYY Bibens-Dirkx, Austin TEX 6 Yankee Stadi... PL 440 105.3 31.2 97.9 117 12 3 0 426 30
07/04/17 Video View Judge, Aaron NYY Happ, J.A. TOR 4 Yankee Stadi... PL 453 118.0 18.2 94.8 61 3 0 0 450 30
07/05/17 Video View Judge, Aaron NYY Estrada, Marco TOR 4 Yankee Stadi... PL 401 101.1 33.1 82.1 126 -1 2 0 400 15
07/07/17 Video View Judge, Aaron NYY Hader, Josh MIL 5 Yankee Stadi... PL 445 107.1 29.5 91.5 121 0 1 0 444 30
07/21/17 Video View Judge, Aaron NYY Moore, Andrew SEA 5 Safeco Field ND 437 115.6 30.1 114.0 125 -16 -1 0 454 30
07/22/17 Video View Judge, Aaron NYY Cishek, Steve SEA 6 Safeco Field PL 404 100.1 30.1 81.5 101 4 0 0 400 28
07/28/17 Video View Judge, Aaron NYY Pruitt, Austin TB 4 Yankee Stadi... PL 387 108.6 22.5 113.4 58 0 1 0 386 29
07/31/17 Video View Judge, Aaron NYY Fulmer, Michael DET 5 Yankee Stadi... PL 408 103.8 27.4 104.2 89 -1 1 0 408 30
08/06/17 Video View Judge, Aaron NYY Clevinger, Mike CLE 7 Progressive ... JE 396 114.4 17.6 81.1 45 -2 0 0 399 7
08/14/17 Video View Judge, Aaron NYY Montero, Rafael NYM 6 Yankee Stadi... PL 390 99.3 32.7 76.6 111 2 1 0 386 27
08/16/17 Video View Judge, Aaron NYY Gsellman, Robert NYM 4 Citi Field ND 469 115.9 31.2 104.1 146 -1 4 0 465 30
09/03/17 Video View Judge, Aaron NYY Reed, Addison BOS 6 Yankee Stadi... ND 468 119.9 22.5 106.5 77 2 -1 0 466 30
09/07/17 Video View Judge, Aaron NYY Gausman, Kevin BAL 1 Oriole Park ... PL 426 104.2 34.4 84.1 136 14 0 0 411 28
09/14/17 Video View Judge, Aaron NYY Wright, Mike BAL 4 Yankee Stadi... PL 417 105.7 24.6 79.9 78 1 0 0 416 28
09/14/17 Video View Judge, Aaron NYY Rodriguez, Richard BAL 6 Yankee Stadi... ND 440 117.2 23.6 115.7 72 1 1 0 438 30
09/18/17 Video View Judge, Aaron NYY Santana, Ervin MIN 1 Yankee Stadi... PL 390 103.6 34.2 77.1 138 -13 1 0 401 29
09/20/17 Video View Judge, Aaron NYY Colon, Bartolo MIN 3 Yankee Stadi... PL 346 93.8 31.5 62.4 80 3 1 0 342 11
09/25/17 Video View Judge, Aaron NYY Junis, Jake KC 3 Yankee Stadi... PL 384 98.7 31.1 74.1 99 -1 2 0 382 28
09/25/17 Video View Judge, Aaron NYY Cahill, Trevor KC 7 Yankee Stadi... PL 401 105.4 33.8 99.9 144 -20 4 0 415 30
09/28/17 Video View Judge, Aaron NYY Faria, Jacob TB 1 Yankee Stadi... PL 362 97.2 38.6 62.6 121 22 0 0 341 13
09/30/17 Video View Judge, Aaron NYY Stroman, Marcus TOR 4 Yankee Stadi... ND 487 118.9 25.0 103.2 104 3 -2 0 486 30
06/02/17 Video View Judge, Aaron NYY Liriano, Francisco TOR 6 Rogers Centr... ND 448 111.9 25.0 77.1 90 0 -1 1 448 30
06/28/17 Video View Judge, Aaron NYY Petricka, Jake CHW 6 Guaranteed R... ND 418 118.6 19.5 108.4 53 -1 0 1 417 30
09/10/17 Video View Judge, Aaron NYY Mendez, Yohander TEX 6 Globe Life P... ND 461 112.2 25.4 102.1 93 6 2 1 453 30
09/22/17 Video View Judge, Aaron NYY Estrada, Marco TOR 1 Rogers Centr... ND 463 120.3 24.7 116.0 84 0 0 1 462 30
09/24/17 Video View Judge, Aaron NYY Stroman, Marcus TOR 6 Rogers Centr... PL 393 114.5 20.8 118.5 52 0 1 1 392 30
09/24/17 Video View Judge, Aaron NYY Tepera, Ryan TOR 7 Rogers Centr... JE 397 101.1 27.3 102.7 84 0 1 1 395 27
04/22/17 Video View Judge, Aaron NYY Bastardo, Antonio PIT 9 PNC Park ND 460 110.4 28.6 103.0 109 13 -3 2 447 30
09/10/17 Video View Judge, Aaron NYY Martinez, Nick TEX 4 Globe Life P... JE/L 387 97.1 32.7 79.0 107 4 3 2 378 4


About HitTracker | Contact Us
© 2006-2017 HitTrackerOnline